createdAt,value
2022-11-24T00:04:34.990Z,4.8
2022-11-24T00:09:34.328Z,4.8
2022-11-24T00:14:35.249Z,4.8
2022-11-24T00:19:35.009Z,4.8
2022-11-24T00:24:35.095Z,4.8
2022-11-24T00:29:34.346Z,4.8
2022-11-24T00:34:35.645Z,4.8
2022-11-24T00:39:35.136Z,4.8
2022-11-24T00:44:35.088Z,4.8
2022-11-24T00:49:34.413Z,4.8
2022-11-24T00:54:35.614Z,4.8
2022-11-24T00:59:35.037Z,4.8
2022-11-24T01:04:35.119Z,4.8
2022-11-24T01:09:34.940Z,4.8
2022-11-24T01:14:34.840Z,4.8
2022-11-24T01:19:34.355Z,4.9
2022-11-24T01:24:35.764Z,4.9
2022-11-24T01:29:35.026Z,4.9
2022-11-24T01:34:35.033Z,4.9
2022-11-24T01:39:34.445Z,5
2022-11-24T01:44:34.983Z,5
2022-11-24T01:49:34.431Z,5.1
2022-11-24T01:54:35.327Z,5.1
2022-11-24T01:59:34.188Z,5.1
2022-11-24T02:04:35.297Z,5.1
2022-11-24T02:09:34.735Z,5.1
2022-11-24T02:14:35.859Z,5.1
2022-11-24T02:19:34.554Z,5.1
2022-11-24T02:24:35.571Z,5.1
2022-11-24T02:29:34.968Z,5.1
2022-11-24T02:34:35.521Z,5.1
2022-11-24T02:39:35.101Z,5
2022-11-24T02:44:35.059Z,5
2022-11-24T02:49:34.978Z,4.9
2022-11-24T02:54:35.810Z,4.9
2022-11-24T02:59:34.348Z,4.8
2022-11-24T03:04:35.178Z,4.8
2022-11-24T03:09:35.215Z,4.7
2022-11-24T03:14:34.925Z,4.7
2022-11-24T03:19:34.470Z,4.6
2022-11-24T03:24:34.982Z,4.6
2022-11-24T03:29:34.228Z,4.6
2022-11-24T03:34:35.294Z,4.6
2022-11-24T03:39:34.260Z,4.5
2022-11-24T03:44:35.317Z,4.5
2022-11-24T03:49:35.216Z,4.5
2022-11-24T03:54:35.713Z,4.5
2022-11-24T03:59:34.733Z,4.6
2022-11-24T04:04:35.610Z,4.6
2022-11-24T04:09:35.171Z,4.7
2022-11-24T04:14:35.905Z,4.7
2022-11-24T04:19:34.896Z,4.7
2022-11-24T04:24:35.555Z,4.7
2022-11-24T04:29:35.166Z,4.8
2022-11-24T04:34:35.426Z,4.8
2022-11-24T04:39:35.061Z,4.9
2022-11-24T04:44:35.325Z,4.9
2022-11-24T04:49:35.152Z,4.9
2022-11-24T04:54:35.037Z,4.9
2022-11-24T04:59:34.470Z,5
2022-11-24T05:04:35.442Z,5
2022-11-24T05:09:59.838Z,5.1
2022-11-24T05:14:34.838Z,5.1
2022-11-24T05:19:34.444Z,5.1
2022-11-24T05:24:35.853Z,5.1
2022-11-24T05:29:34.405Z,5.2
2022-11-24T05:34:35.823Z,5.2
2022-11-24T05:39:34.263Z,5.2
2022-11-24T05:44:35.424Z,5.2
2022-11-24T05:49:34.243Z,5.3
2022-11-24T05:54:35.826Z,5.3
2022-11-24T05:59:35.270Z,5.3
2022-11-24T06:04:35.342Z,5.3
2022-11-24T06:09:34.802Z,5.4
2022-11-24T06:14:34.740Z,5.4
2022-11-24T06:19:42.353Z,5.4
2022-11-24T06:24:35.197Z,5.4
2022-11-24T06:29:34.710Z,5.4
2022-11-24T06:34:35.527Z,5.4
2022-11-24T06:39:35.012Z,5.4
2022-11-24T06:44:36.000Z,5.4
2022-11-24T06:49:34.332Z,5.3
2022-11-24T06:54:35.207Z,5.3
2022-11-24T06:59:34.652Z,5.2
2022-11-24T07:04:35.545Z,5.2
2022-11-24T07:09:35.101Z,5.1
2022-11-24T07:14:35.409Z,5.1
2022-11-24T07:19:34.616Z,4.9
2022-11-24T07:24:35.525Z,4.9
2022-11-24T07:29:34.599Z,4.8
2022-11-24T07:34:35.237Z,4.8
2022-11-24T07:39:34.568Z,4.8
2022-11-24T07:44:35.312Z,4.8
2022-11-24T07:49:34.656Z,4.8
2022-11-24T07:54:35.900Z,4.8
2022-11-24T07:59:34.393Z,4.8
2022-11-24T08:04:35.354Z,4.8
2022-11-24T08:09:34.775Z,4.8
2022-11-24T08:14:35.697Z,4.8
2022-11-24T08:19:35.217Z,4.2
2022-11-24T08:24:35.997Z,4.2
2022-11-24T08:29:34.350Z,4.2
2022-11-24T08:34:35.430Z,4.2
2022-11-24T08:39:34.918Z,4.3
2022-11-24T08:44:36.553Z,4.3
2022-11-24T08:49:35.364Z,4.6
2022-11-24T08:54:35.552Z,4.6
2022-11-24T08:59:35.443Z,5.6
2022-11-24T09:04:35.484Z,5.6
2022-11-24T09:09:34.451Z,6.7
2022-11-24T09:14:35.370Z,6.7
2022-11-24T09:19:35.153Z,7.1
2022-11-24T09:24:34.683Z,7.1
2022-11-24T09:29:36.258Z,7.2
2022-11-24T09:34:35.304Z,7.2
2022-11-24T09:39:36.453Z,7.4
2022-11-24T09:44:34.486Z,7.4
2022-11-24T09:49:35.666Z,7.6
2022-11-24T09:54:35.246Z,7.6
2022-11-24T09:59:35.053Z,7.7
2022-11-24T10:04:35.410Z,7.7
2022-11-24T10:09:35.833Z,7.9
2022-11-24T10:14:35.255Z,7.9
2022-11-24T10:19:37.733Z,8
2022-11-24T10:24:35.150Z,8
2022-11-24T10:29:36.413Z,8.3
2022-11-24T10:34:35.160Z,8.3
2022-11-24T10:39:35.387Z,8.4
2022-11-24T10:44:35.274Z,8.4
2022-11-24T10:49:35.619Z,8.7
2022-11-24T10:54:35.139Z,8.7
2022-11-24T10:59:35.224Z,8.9
2022-11-24T11:04:34.593Z,8.9
2022-11-24T11:09:35.488Z,9
2022-11-24T11:14:34.988Z,9
2022-11-24T11:19:50.383Z,8.9
2022-11-24T11:24:35.173Z,8.9
2022-11-24T11:34:35.491Z,8.9
2022-11-24T11:39:34.780Z,8.9
2022-11-24T11:44:36.093Z,8.9
2022-11-24T11:49:34.606Z,8.9
2022-11-24T11:54:35.788Z,8.9
2022-11-24T11:59:34.621Z,9.2
2022-11-24T12:04:36.223Z,9.2
2022-11-24T12:09:35.754Z,9.3
2022-11-24T12:14:39.654Z,9.3
2022-11-24T12:19:36.129Z,9.4
2022-11-24T12:24:34.678Z,9.4
2022-11-24T12:29:35.379Z,9.4
2022-11-24T12:34:34.967Z,9.4
2022-11-24T12:39:36.162Z,9.6
2022-11-24T12:44:34.638Z,9.6
2022-11-24T12:49:35.714Z,9.6
2022-11-24T12:54:35.082Z,9.6
2022-11-24T12:59:36.322Z,9.6
2022-11-24T13:04:35.829Z,9.6
2022-11-24T13:09:35.329Z,9.6
2022-11-24T13:14:35.631Z,9.6
2022-11-24T13:19:34.983Z,9.6
2022-11-24T13:24:35.850Z,9.6
2022-11-24T13:29:35.296Z,9.6
2022-11-24T13:34:36.525Z,9.6
2022-11-24T13:39:44.757Z,9.4
2022-11-24T13:44:35.438Z,9.4
2022-11-24T13:49:34.972Z,9.4
2022-11-24T13:54:35.898Z,9.4
2022-11-24T13:59:35.338Z,9.4
2022-11-24T14:04:34.613Z,9.4
2022-11-24T14:09:35.057Z,9.4
2022-11-24T14:14:36.008Z,9.4
2022-11-24T14:19:35.587Z,9.3
2022-11-24T14:24:41.950Z,9.3
2022-11-24T14:29:35.287Z,9.3
2022-11-24T14:34:36.268Z,9.3
2022-11-24T14:39:34.890Z,9.3
2022-11-24T14:44:36.106Z,9.3
2022-11-24T14:49:35.092Z,9.2
2022-11-24T14:54:35.516Z,9.2
2022-11-24T14:59:35.096Z,9.2
2022-11-24T15:05:04.347Z,9.2
2022-11-24T15:09:34.890Z,9.1
2022-11-24T15:14:35.552Z,9.1
2022-11-24T15:19:35.149Z,9.1
2022-11-24T15:24:36.187Z,9.1
2022-11-24T15:29:34.600Z,9
2022-11-24T15:34:36.384Z,9
2022-11-24T15:39:34.830Z,8.9
2022-11-24T15:44:36.097Z,8.9
2022-11-24T15:49:35.327Z,8.9
2022-11-24T15:54:35.529Z,8.9
2022-11-24T15:59:35.136Z,8.8
2022-11-24T16:04:36.129Z,8.8
2022-11-24T16:09:35.003Z,8.8
2022-11-24T16:14:36.172Z,8.8
2022-11-24T16:19:42.315Z,8.7
2022-11-24T16:24:35.668Z,8.7
2022-11-24T16:29:38.821Z,8.6
2022-11-24T16:34:36.029Z,8.6
2022-11-24T16:39:34.830Z,8.6
2022-11-24T16:44:35.836Z,8.6
2022-11-24T16:49:34.678Z,8.6
2022-11-24T16:54:35.564Z,8.6
2022-11-24T16:59:34.936Z,8.6
2022-11-24T17:04:36.133Z,8.6
2022-11-24T17:09:41.009Z,8.6
2022-11-24T17:14:35.417Z,8.6
2022-11-24T17:19:34.722Z,8.6
2022-11-24T17:24:35.913Z,8.6
